Terminal Aerodrome Forecast
Issued by NWS

Home | Current Version | Previous Version | Text Only | Print | Product List | Glossary Off
Versions: 1 2 3 4 5 6 7 8 9 10 11 12

615
FTUS43 KMPX 191741
TAFAXN
TAF
KAXN 191741Z 1918/2018 36007KT P6SM FEW250
     FM200500 36003KT P6SM SKC
     FM201500 30006KT P6SM SCT250=

USA.gov is the U.S. government's official web portal to all federal, state and local government web resources and services.